Time;durP1;ratioP1;P1;durP2;ratioP2;P2;SDS_P1;SDS_P2;PMS_P1;PMS_P2;Temp;Humidity;BMP_temperature;BMP_pressure;BME280_temperature;BME280_humidity;BME280_pressure;Samples;Min_cycle;Max_cycle;Signal;HPM_P1;HPM_P2
2022/12/05 00:01:55;;;;;;;9.9;6.1;;;;;;;;;;;;;
2022/12/05 00:04:23;;;;;;;10.1;6.2;;;;;;;;;;;;;
2022/12/05 00:06:48;;;;;;;9.1;5.9;;;;;;;;;;;;;
2022/12/05 00:09:13;;;;;;;11.6;6.2;;;;;;;;;;;;;
2022/12/05 00:11:38;;;;;;;8.4;6.1;;;;;;;;;;;;;
2022/12/05 00:14:07;;;;;;;12.3;5.8;;;;;;;;;;;;;
2022/12/05 00:16:32;;;;;;;9;5.1;;;;;;;;;;;;;
2022/12/05 00:18:57;;;;;;;8.6;5.1;;;;;;;;;;;;;
2022/12/05 00:21:23;;;;;;;6.3;4.7;;;;;;;;;;;;;
2022/12/05 00:23:48;;;;;;;8.8;5.2;;;;;;;;;;;;;
2022/12/05 00:26:14;;;;;;;8.6;5.2;;;;;;;;;;;;;
2022/12/05 00:28:45;;;;;;;6.9;4.8;;;;;;;;;;;;;
2022/12/05 00:31:15;;;;;;;6.7;5;;;;;;;;;;;;;
2022/12/05 00:33:44;;;;;;;7.5;5.1;;;;;;;;;;;;;
2022/12/05 00:36:11;;;;;;;5.3;4.5;;;;;;;;;;;;;
2022/12/05 00:38:36;;;;;;;5.8;4.5;;;;;;;;;;;;;
2022/12/05 00:41:04;;;;;;;5.5;4.6;;;;;;;;;;;;;
2022/12/05 00:43:28;;;;;;;8.1;5.1;;;;;;;;;;;;;
2022/12/05 00:45:55;;;;;;;7.4;5;;;;;;;;;;;;;
2022/12/05 00:48:20;;;;;;;6.2;4.8;;;;;;;;;;;;;
2022/12/05 00:50:46;;;;;;;6.2;4.5;;;;;;;;;;;;;
2022/12/05 00:53:11;;;;;;;6.1;4.7;;;;;;;;;;;;;
2022/12/05 00:55:37;;;;;;;5.9;4.8;;;;;;;;;;;;;
2022/12/05 00:58:02;;;;;;;5.7;4.4;;;;;;;;;;;;;
2022/12/05 01:00:31;;;;;;;5.8;4.3;;;;;;;;;;;;;
2022/12/05 01:03:02;;;;;;;7.1;4.8;;;;;;;;;;;;;
2022/12/05 01:05:27;;;;;;;5.1;4.3;;;;;;;;;;;;;
2022/12/05 01:07:52;;;;;;;5.5;4.2;;;;;;;;;;;;;
2022/12/05 01:10:17;;;;;;;4.5;3.9;;;;;;;;;;;;;
2022/12/05 01:12:45;;;;;;;4.8;3.7;;;;;;;;;;;;;
2022/12/05 01:15:10;;;;;;;5.5;4.2;;;;;;;;;;;;;
2022/12/05 01:17:36;;;;;;;4.6;3.8;;;;;;;;;;;;;
2022/12/05 01:20:01;;;;;;;5.1;4.2;;;;;;;;;;;;;
2022/12/05 01:22:26;;;;;;;5.6;3.7;;;;;;;;;;;;;
2022/12/05 01:24:52;;;;;;;4.8;4.1;;;;;;;;;;;;;
2022/12/05 01:27:17;;;;;;;5.8;4.5;;;;;;;;;;;;;
2022/12/05 01:29:43;;;;;;;4.6;4.1;;;;;;;;;;;;;
2022/12/05 01:32:09;;;;;;;4.3;3.9;;;;;;;;;;;;;
2022/12/05 01:34:34;;;;;;;4.7;4;;;;;;;;;;;;;
2022/12/05 01:37:01;;;;;;;4.9;3.9;;;;;;;;;;;;;
2022/12/05 01:39:25;;;;;;;4.6;3.7;;;;;;;;;;;;;
2022/12/05 01:42:16;;;;;;;4.6;3.9;;;;;;;;;;;;;
2022/12/05 01:44:49;;;;;;;4.7;4.1;;;;;;;;;;;;;
2022/12/05 01:47:21;;;;;;;4.4;3.5;;;;;;;;;;;;;
2022/12/05 01:49:46;;;;;;;5.1;4.1;;;;;;;;;;;;;
2022/12/05 01:52:19;;;;;;;4.6;4.1;;;;;;;;;;;;;
2022/12/05 01:54:48;;;;;;;4.4;4;;;;;;;;;;;;;
2022/12/05 01:57:20;;;;;;;4.8;4.2;;;;;;;;;;;;;
2022/12/05 01:59:49;;;;;;;4.8;4.1;;;;;;;;;;;;;
2022/12/05 02:02:22;;;;;;;5.2;4.2;;;;;;;;;;;;;
2022/12/05 02:04:50;;;;;;;5.6;4.4;;;;;;;;;;;;;
2022/12/05 02:07:21;;;;;;;7.7;4.8;;;;;;;;;;;;;
2022/12/05 02:09:49;;;;;;;7.4;4.8;;;;;;;;;;;;;
2022/12/05 02:12:14;;;;;;;5.7;4.4;;;;;;;;;;;;;
2022/12/05 02:14:40;;;;;;;6.9;5.1;;;;;;;;;;;;;
2022/12/05 02:17:10;;;;;;;6.9;4.7;;;;;;;;;;;;;
2022/12/05 02:19:35;;;;;;;6.2;5.1;;;;;;;;;;;;;
2022/12/05 02:22:07;;;;;;;5.8;4.7;;;;;;;;;;;;;
2022/12/05 02:24:40;;;;;;;7.4;5.8;;;;;;;;;;;;;
2022/12/05 02:27:08;;;;;;;6.2;5;;;;;;;;;;;;;
2022/12/05 02:29:37;;;;;;;8.8;5.8;;;;;;;;;;;;;
2022/12/05 02:32:02;;;;;;;8.4;6;;;;;;;;;;;;;
2022/12/05 02:34:27;;;;;;;11.4;6.5;;;;;;;;;;;;;
2022/12/05 02:36:52;;;;;;;9.9;6.5;;;;;;;;;;;;;
2022/12/05 02:39:17;;;;;;;10.6;6.9;;;;;;;;;;;;;
2022/12/05 02:41:43;;;;;;;9.8;6.9;;;;;;;;;;;;;
2022/12/05 02:44:11;;;;;;;10;6.9;;;;;;;;;;;;;
2022/12/05 02:46:37;;;;;;;11.2;7.4;;;;;;;;;;;;;
2022/12/05 02:49:03;;;;;;;10.5;7.4;;;;;;;;;;;;;
2022/12/05 02:51:28;;;;;;;10.6;7.2;;;;;;;;;;;;;
2022/12/05 02:53:56;;;;;;;10;6.7;;;;;;;;;;;;;
2022/12/05 02:56:21;;;;;;;10.5;7.6;;;;;;;;;;;;;
2022/12/05 02:58:48;;;;;;;12.3;7.8;;;;;;;;;;;;;
2022/12/05 03:01:13;;;;;;;11.2;7.3;;;;;;;;;;;;;
2022/12/05 03:03:38;;;;;;;10.6;7.1;;;;;;;;;;;;;
2022/12/05 03:06:03;;;;;;;11.6;7.2;;;;;;;;;;;;;
2022/12/05 03:08:31;;;;;;;10.3;7.5;;;;;;;;;;;;;
2022/12/05 03:10:56;;;;;;;11.8;7.2;;;;;;;;;;;;;
2022/12/05 03:13:25;;;;;;;12.5;7.5;;;;;;;;;;;;;
2022/12/05 03:15:51;;;;;;;12;7.6;;;;;;;;;;;;;
2022/12/05 03:18:17;;;;;;;11.7;7.6;;;;;;;;;;;;;
2022/12/05 03:20:42;;;;;;;10.1;7;;;;;;;;;;;;;
2022/12/05 03:23:07;;;;;;;11.6;7.7;;;;;;;;;;;;;
2022/12/05 03:25:34;;;;;;;12.2;7.2;;;;;;;;;;;;;
2022/12/05 03:27:59;;;;;;;12;7.6;;;;;;;;;;;;;
2022/12/05 03:30:24;;;;;;;11.8;7.7;;;;;;;;;;;;;
2022/12/05 03:32:49;;;;;;;13.1;8;;;;;;;;;;;;;
2022/12/05 03:35:15;;;;;;;11.1;7.5;;;;;;;;;;;;;
2022/12/05 03:37:40;;;;;;;10.9;7.7;;;;;;;;;;;;;
2022/12/05 03:40:06;;;;;;;11.2;7.5;;;;;;;;;;;;;
2022/12/05 03:42:36;;;;;;;11.9;7.9;;;;;;;;;;;;;
2022/12/05 03:45:01;;;;;;;11;6.9;;;;;;;;;;;;;
2022/12/05 03:47:26;;;;;;;11;7.5;;;;;;;;;;;;;
2022/12/05 03:49:51;;;;;;;10.7;7.3;;;;;;;;;;;;;
2022/12/05 03:52:16;;;;;;;11.4;7.2;;;;;;;;;;;;;
2022/12/05 03:54:42;;;;;;;8.8;6.6;;;;;;;;;;;;;
2022/12/05 03:57:09;;;;;;;9.7;6.6;;;;;;;;;;;;;
2022/12/05 03:59:34;;;;;;;8.4;5.9;;;;;;;;;;;;;
2022/12/05 04:02:44;;;;;;;8.2;6.2;;;;;;;2.44;98.85059;936.0517;;;;
2022/12/05 04:05:01;;;;;;;8.4;6;;;;;;;2.49;98.4707;936.089;;;;
2022/12/05 04:07:35;;;;;;;8.4;6.3;;;;;;;2.4;98.38281;936.1615;;;;
2022/12/05 04:10:04;;;;;;;8.5;6.4;;;;;;;2.41;98.21875;936.1067;;;;
2022/12/05 04:12:37;;;;;;;9.3;6.8;;;;;;;2.47;98.37695;936.1536;;;;
2022/12/05 04:15:08;;;;;;;9.2;6.6;;;;;;;2.4;98.54199;936.1079;;;;
2022/12/05 04:17:41;;;;;;;9.1;7.1;;;;;;;2.35;98.51758;936.192;;;;
2022/12/05 04:22:34;;;;;;;8.7;6.6;;;;;;;2.41;98.85547;936.1844;;;;
2022/12/05 04:27:33;;;;;;;8.5;6.5;;;;;;;2.46;98.28516;936.3328;;;;
2022/12/05 04:29:58;;;;;;;7.9;6;;;;;;;2.53;98.34668;936.3898;;;;
2022/12/05 04:32:27;;;;;;;9.1;6.5;;;;;;;2.45;98.38379;936.31;;;;
2022/12/05 04:35:01;;;;;;;8.8;6.7;;;;;;;2.24;98.58008;936.3434;;;;
2022/12/05 04:37:34;;;;;;;8.9;6.8;;;;;;;2.2;99.1543;936.3558;;;;
2022/12/05 04:40:02;;;;;;;8.6;6.9;;;;;;;2.34;99.18555;936.3078;;;;
2022/12/05 04:42:29;;;;;;;9.2;7;;;;;;;2.39;98.81543;936.29;;;;
2022/12/05 04:45:01;;;;;;;9.2;7.1;;;;;;;2.38;98.68066;936.2969;;;;
2022/12/05 04:47:33;;;;;;;9.1;6.6;;;;;;;2.38;98.82617;936.4155;;;;
2022/12/05 04:49:58;;;;;;;9.4;6.7;;;;;;;2.51;98.27344;936.4384;;;;
2022/12/05 04:52:27;;;;;;;8.2;6.2;;;;;;;2.49;97.8877;936.478;;;;
2022/12/05 04:54:55;;;;;;;6.7;5.2;;;;;;;2.5;97.75781;936.4407;;;;
2022/12/05 04:57:20;;;;;;;7.7;5.8;;;;;;;2.59;97.61914;936.4289;;;;
2022/12/05 04:59:45;;;;;;;7.1;5.6;;;;;;;2.71;97.40039;936.4357;;;;
2022/12/05 05:02:17;;;;;;;7.6;6.3;;;;;;;2.82;96.83008;936.432;;;;
2022/12/05 05:04:42;;;;;;;7.6;6.2;;;;;;;2.88;96.35156;936.4427;;;;
2022/12/05 05:07:09;;;;;;;11.1;7.1;;;;;;;2.99;95.83984;936.3453;;;;
2022/12/05 05:09:34;;;;;;;8.6;6.6;;;;;;;3.07;95.50781;936.3239;;;;
2022/12/05 05:12:01;;;;;;;8.4;6.4;;;;;;;3.14;95.1543;936.4472;;;;
2022/12/05 05:14:26;;;;;;;8.4;6.2;;;;;;;3.17;95.00293;936.5017;;;;
2022/12/05 05:16:51;;;;;;;8.4;6.5;;;;;;;3.22;94.82422;936.5912;;;;
2022/12/05 05:19:16;;;;;;;7.9;5.6;;;;;;;3.29;94.37793;936.6202;;;;
2022/12/05 05:21:45;;;;;;;7.9;6.1;;;;;;;3.19;94.45898;936.6394;;;;
2022/12/05 05:24:10;;;;;;;7.8;6.1;;;;;;;3.17;94.74707;936.5703;;;;
2022/12/05 05:26:35;;;;;;;8.5;6.6;;;;;;;3.13;94.69141;936.5572;;;;
2022/12/05 05:29:02;;;;;;;7.7;6.2;;;;;;;2.91;95.00195;936.7089;;;;
2022/12/05 05:31:28;;;;;;;8.2;6.3;;;;;;;2.94;95.35645;936.7453;;;;
2022/12/05 05:33:53;;;;;;;7.7;5.9;;;;;;;2.97;95.30859;936.8298;;;;
2022/12/05 05:36:22;;;;;;;9.8;8.6;;;;;;;3.03;95.23242;936.8181;;;;
2022/12/05 05:38:47;;;;;;;7.3;5.3;;;;;;;2.95;95.02148;936.8362;;;;
2022/12/05 05:41:16;;;;;;;6.9;5.3;;;;;;;2.7;95.95215;936.8284;;;;
2022/12/05 05:43:41;;;;;;;8;5.9;;;;;;;2.69;96.27441;936.8845;;;;
2022/12/05 05:46:10;;;;;;;7.1;5.9;;;;;;;2.69;96.52148;937.0011;;;;
2022/12/05 05:48:35;;;;;;;6.1;5.1;;;;;;;2.77;96.14746;936.9891;;;;
2022/12/05 05:51:02;;;;;;;6;4.5;;;;;;;2.8;95.86426;936.9425;;;;
2022/12/05 05:53:27;;;;;;;7.3;5.5;;;;;;;2.54;96.26465;936.9348;;;;
2022/12/05 05:55:58;;;;;;;7.1;5.4;;;;;;;2.7;96.2002;937.0228;;;;
2022/12/05 05:58:27;;;;;;;7.6;5.9;;;;;;;2.83;95.89258;937.0906;;;;
2022/12/05 06:00:54;;;;;;;7.2;5.6;;;;;;;2.78;95.73633;937.0979;;;;
2022/12/05 06:03:19;;;;;;;6.9;5.9;;;;;;;2.73;96.09668;937.145;;;;
2022/12/05 06:05:47;;;;;;;7.4;6.2;;;;;;;2.81;96.00098;937.2136;;;;
2022/12/05 06:08:12;;;;;;;7.1;5.7;;;;;;;2.83;95.75586;937.1973;;;;
2022/12/05 06:10:37;;;;;;;8;6.1;;;;;;;2.66;96.10059;937.1987;;;;
2022/12/05 06:13:07;;;;;;;9.4;6.7;;;;;;;2.73;96.43066;937.1691;;;;
2022/12/05 06:15:37;;;;;;;8.9;7.1;;;;;;;2.81;96.21191;937.1353;;;;
2022/12/05 06:18:04;;;;;;;9.6;6.8;;;;;;;2.71;96.37109;937.178;;;;
2022/12/05 06:20:29;;;;;;;8.1;6.5;;;;;;;2.55;96.5918;937.1873;;;;
2022/12/05 06:22:55;;;;;;;8.7;6.4;;;;;;;2.22;98.13965;937.1462;;;;
2022/12/05 06:25:22;;;;;;;10.3;8.4;;;;;;;2.34;98.54688;937.1249;;;;
2022/12/05 06:27:53;;;;;;;10.2;8.8;;;;;;;2.54;97.92285;937.1541;;;;
2022/12/05 06:30:21;;;;;;;8.2;6.2;;;;;;;2.58;97.30371;937.135;;;;
2022/12/05 06:32:52;;;;;;;7.3;5.8;;;;;;;2.54;97.04883;937.1438;;;;
2022/12/05 06:35:18;;;;;;;6.8;5.2;;;;;;;2.49;96.89063;937.0914;;;;
2022/12/05 06:37:43;;;;;;;6.8;5.2;;;;;;;2.49;97.1377;937.1866;;;;
2022/12/05 06:40:14;;;;;;;10.3;8.8;;;;;;;2.42;96.9209;937.1803;;;;
2022/12/05 06:42:42;;;;;;;7.6;6.3;;;;;;;2.53;97.16992;937.1789;;;;
2022/12/05 06:45:07;;;;;;;7.6;5.8;;;;;;;2.71;96.74023;937.2447;;;;
2022/12/05 06:47:35;;;;;;;24.2;21.8;;;;;;;2.8;96.05469;937.1473;;;;
2022/12/05 06:50:00;;;;;;;11.3;8.4;;;;;;;2.77;95.74414;937.2242;;;;
2022/12/05 06:52:29;;;;;;;8.7;7.6;;;;;;;2.82;95.54102;937.2089;;;;
2022/12/05 06:54:58;;;;;;;11.2;9.6;;;;;;;2.87;95.37402;937.1894;;;;
2022/12/05 06:57:23;;;;;;;9.2;7.4;;;;;;;2.92;95.35059;937.1353;;;;
2022/12/05 07:01:37;;;;;;;9.6;6.9;;;;;;;2.93;95.25098;937.1592;;;;
2022/12/05 07:02:17;;;;;;;8.2;6.1;;;;;;;2.78;95.30859;937.1763;;;;
2022/12/05 07:04:43;;;;;;;7.7;6;;;;;;;2.78;95.49902;937.108;;;;
2022/12/05 07:07:08;;;;;;;8.1;6.2;;;;;;;2.94;95.2666;937.2117;;;;
2022/12/05 07:09:52;;;;;;;8.3;6;;;;;;;2.98;94.99609;937.2194;;;;
2022/12/05 07:12:02;;;;;;;7.8;6.2;;;;;;;2.97;94.9248;937.1357;;;;
2022/12/05 07:14:27;;;;;;;8.4;5.9;;;;;;;3.06;94.97852;937.1652;;;;
2022/12/05 07:16:52;;;;;;;9.5;7.2;;;;;;;3.04;94.59473;937.2046;;;;
2022/12/05 07:19:23;;;;;;;8.1;5.9;;;;;;;3;94.80957;937.1254;;;;
2022/12/05 07:21:48;;;;;;;7.4;6.1;;;;;;;3.01;94.63184;937.198;;;;
2022/12/05 07:24:18;;;;;;;7.5;6.1;;;;;;;2.97;94.67969;937.2263;;;;
2022/12/05 07:26:52;;;;;;;27;15.4;;;;;;;3.04;94.63965;937.2486;;;;
2022/12/05 07:29:20;;;;;;;14;9.7;;;;;;;3.06;94.74512;937.2447;;;;
2022/12/05 07:31:46;;;;;;;12.3;8.5;;;;;;;3.13;94.57031;937.2346;;;;
2022/12/05 07:34:15;;;;;;;10.9;7.8;;;;;;;3.11;94.45215;937.2275;;;;
2022/12/05 07:36:40;;;;;;;10.2;7.8;;;;;;;3.13;94.15527;937.2534;;;;
2022/12/05 07:39:07;;;;;;;9.5;6.8;;;;;;;3.13;94.35742;937.2125;;;;
2022/12/05 07:41:36;;;;;;;8.4;6;;;;;;;3.09;94.32422;937.207;;;;
2022/12/05 07:44:03;;;;;;;8.5;6;;;;;;;3.05;94.39551;937.3286;;;;
2022/12/05 07:46:33;;;;;;;8.3;5.8;;;;;;;3.11;94.30664;937.317;;;;
2022/12/05 07:49:03;;;;;;;6.9;5.5;;;;;;;3.15;94.24707;937.3962;;;;
2022/12/05 07:51:28;;;;;;;6.6;5.7;;;;;;;3.1;94.49316;937.4008;;;;
2022/12/05 07:53:54;;;;;;;6.7;5.4;;;;;;;3.23;94.2627;937.438;;;;
2022/12/05 07:56:20;;;;;;;6.4;5.1;;;;;;;3.11;94.05957;937.4838;;;;
2022/12/05 07:58:49;;;;;;;7.5;5.3;;;;;;;3.06;94.15918;937.346;;;;
2022/12/05 08:01:21;;;;;;;7.4;5.5;;;;;;;3.02;94.47656;937.5057;;;;
2022/12/05 08:03:48;;;;;;;6.3;5.1;;;;;;;3.14;94.16602;937.4856;;;;
2022/12/05 08:06:19;;;;;;;7.3;5.4;;;;;;;3.11;94.09277;937.4728;;;;
2022/12/05 08:08:51;;;;;;;6.6;5.3;;;;;;;3.23;94.36426;937.4993;;;;
2022/12/05 08:11:22;;;;;;;6.5;5.2;;;;;;;3.35;94.24609;937.5334;;;;
2022/12/05 08:13:47;;;;;;;8.3;6.3;;;;;;;3.45;93.92188;937.4648;;;;
2022/12/05 08:16:17;;;;;;;8.2;5.9;;;;;;;3.43;93.41016;937.5224;;;;
2022/12/05 08:18:47;;;;;;;8.3;6.5;;;;;;;3.26;93.7998;937.5932;;;;
2022/12/05 08:21:12;;;;;;;8.5;6.1;;;;;;;3.31;94.39551;937.57;;;;
2022/12/05 08:23:44;;;;;;;7.3;5.8;;;;;;;3.49;94.05371;937.6671;;;;
2022/12/05 08:26:08;;;;;;;7.6;5.4;;;;;;;3.54;93.71484;937.6505;;;;
2022/12/05 08:28:40;;;;;;;6.4;5.5;;;;;;;3.57;93.11621;937.6793;;;;
2022/12/05 08:31:12;;;;;;;7.1;5.6;;;;;;;3.6;92.97852;937.6744;;;;
2022/12/05 08:33:37;;;;;;;7;5.8;;;;;;;3.58;92.75879;937.759;;;;
2022/12/05 08:36:03;;;;;;;8.1;5.4;;;;;;;3.63;92.91504;937.7216;;;;
2022/12/05 08:38:32;;;;;;;6.8;5.6;;;;;;;3.67;92.7334;937.7751;;;;
2022/12/05 08:40:57;;;;;;;12.4;7.5;;;;;;;3.8;92.77246;937.7817;;;;
2022/12/05 08:43:28;;;;;;;13;7.3;;;;;;;3.88;92.29785;937.7525;;;;
2022/12/05 08:45:58;;;;;;;9;6.2;;;;;;;3.81;91.34863;937.8007;;;;
2022/12/05 08:48:23;;;;;;;7;4.9;;;;;;;3.76;92;937.8073;;;;
2022/12/05 08:50:52;;;;;;;7.1;5;;;;;;;3.75;92.74023;937.788;;;;
2022/12/05 08:53:17;;;;;;;4.7;4;;;;;;;3.77;92.62988;937.8405;;;;
2022/12/05 08:55:44;;;;;;;4.6;4.1;;;;;;;3.89;92.67969;937.8575;;;;
2022/12/05 08:58:09;;;;;;;5.5;4.2;;;;;;;3.94;92.22852;937.9324;;;;
2022/12/05 09:00:41;;;;;;;4.6;4;;;;;;;4.01;92.03223;937.9131;;;;
2022/12/05 09:03:09;;;;;;;5.1;3.8;;;;;;;3.89;92.04102;937.9522;;;;
2022/12/05 09:05:34;;;;;;;4.2;3.8;;;;;;;3.92;92.22656;937.9469;;;;
2022/12/05 09:08:01;;;;;;;4.4;3.9;;;;;;;3.9;91.93066;937.9927;;;;
2022/12/05 09:10:26;;;;;;;4.7;4.1;;;;;;;4.02;92.38086;937.9786;;;;
2022/12/05 09:12:56;;;;;;;4.3;3.6;;;;;;;4.01;92.11133;938.103;;;;
2022/12/05 09:15:21;;;;;;;5;4.1;;;;;;;4.03;91.67676;938.0806;;;;
2022/12/05 09:17:51;;;;;;;6.3;4.7;;;;;;;4.04;91.81348;938.1086;;;;
2022/12/05 09:20:19;;;;;;;6.8;4.5;;;;;;;4.16;91.36816;938.1017;;;;
2022/12/05 09:22:44;;;;;;;10.2;6.2;;;;;;;4.29;91.53027;938.1519;;;;
2022/12/05 09:25:16;;;;;;;8.3;5.2;;;;;;;4.33;91.03223;938.1058;;;;
2022/12/05 09:27:47;;;;;;;5.7;4.9;;;;;;;4.21;91.17578;938.0712;;;;
2022/12/05 09:30:18;;;;;;;6.3;5.1;;;;;;;4.26;91.07422;938.0666;;;;
2022/12/05 09:32:46;;;;;;;8.3;5.6;;;;;;;4.28;91.22461;938.1264;;;;
2022/12/05 09:35:15;;;;;;;9.7;7.6;;;;;;;4.25;91.53223;938.0963;;;;
2022/12/05 09:37:40;;;;;;;9.8;6;;;;;;;4.28;91.6748;938.1381;;;;
2022/12/05 09:40:11;;;;;;;9.2;6.4;;;;;;;4.43;91.60645;938.1954;;;;
2022/12/05 09:42:43;;;;;;;8.5;6.6;;;;;;;4.59;91.44824;938.2026;;;;
2022/12/05 09:45:18;;;;;;;10;6.8;;;;;;;4.69;90.98535;938.2377;;;;
2022/12/05 09:47:47;;;;;;;9.3;6.7;;;;;;;4.75;91.08887;938.1717;;;;
2022/12/05 09:50:18;;;;;;;9.2;6.4;;;;;;;4.63;91.00488;938.0938;;;;
2022/12/05 09:52:44;;;;;;;5.8;4.8;;;;;;;4.6;90.90918;938.1147;;;;
2022/12/05 09:55:14;;;;;;;5.4;4.3;;;;;;;4.76;91.06836;938.0458;;;;
2022/12/05 09:57:39;;;;;;;4.8;4.3;;;;;;;4.39;90.65137;938.0754;;;;
2022/12/05 10:00:04;;;;;;;6.4;4.5;;;;;;;4.49;91.5166;938.0812;;;;
2022/12/05 10:02:29;;;;;;;7.5;5.7;;;;;;;4.38;92.11035;938.1089;;;;
2022/12/05 10:04:57;;;;;;;6.8;5.7;;;;;;;4.47;92.17676;938.1516;;;;
2022/12/05 10:07:21;;;;;;;6.5;5.6;;;;;;;4.65;91.74316;938.1049;;;;
2022/12/05 10:09:48;;;;;;;8;6.2;;;;;;;4.79;91.70508;938.1223;;;;
2022/12/05 10:12:15;;;;;;;7.4;5.3;;;;;;;4.81;90.62891;938.0698;;;;
2022/12/05 10:14:40;;;;;;;7;5.8;;;;;;;4.72;91.22754;938.0217;;;;
2022/12/05 10:17:06;;;;;;;5.5;4.4;;;;;;;4.64;91.16504;937.9774;;;;
2022/12/05 10:19:36;;;;;;;6.7;5.2;;;;;;;4.7;91.14453;938.0706;;;;
2022/12/05 10:22:01;;;;;;;7.7;6;;;;;;;4.67;90.85742;938.0581;;;;
2022/12/05 10:24:29;;;;;;;8.1;6;;;;;;;4.27;91.33301;938.0636;;;;
2022/12/05 10:26:54;;;;;;;14.5;12.6;;;;;;;4.17;92.31348;938.046;;;;
2022/12/05 10:29:19;;;;;;;11.6;9.4;;;;;;;4.01;92.9209;938.077;;;;
2022/12/05 10:31:45;;;;;;;10.7;8.8;;;;;;;4.25;93.45605;938.0511;;;;
2022/12/05 10:34:10;;;;;;;11.4;8.4;;;;;;;4.45;93.18457;938.0128;;;;
2022/12/05 10:36:35;;;;;;;8.1;5.8;;;;;;;4.61;92.73535;937.9425;;;;
2022/12/05 10:39:00;;;;;;;5.6;4.6;;;;;;;4.7;92.25977;937.9895;;;;
2022/12/05 10:41:31;;;;;;;6.5;4.3;;;;;;;4.66;92.27441;938.0206;;;;
2022/12/05 10:44:03;;;;;;;6.2;4.4;;;;;;;4.67;91.8916;938.0003;;;;
2022/12/05 10:46:28;;;;;;;6.3;4.1;;;;;;;4.62;91.54395;937.9183;;;;
2022/12/05 10:48:56;;;;;;;6.2;4.4;;;;;;;4.42;92.36816;937.9713;;;;
2022/12/05 10:51:21;;;;;;;4.9;4.1;;;;;;;4.47;92.74023;938.024;;;;
2022/12/05 10:53:51;;;;;;;4.9;3.8;;;;;;;4.63;92.61621;938.0346;;;;
2022/12/05 10:56:18;;;;;;;5.6;4;;;;;;;4.57;93.15527;938.0089;;;;
2022/12/05 10:58:43;;;;;;;5.9;3.9;;;;;;;4.65;93.17188;938.07;;;;
2022/12/05 11:01:12;;;;;;;4.6;3.8;;;;;;;4.76;92.64355;938.0031;;;;
2022/12/05 11:03:37;;;;;;;4.6;3.7;;;;;;;4.63;93.02148;938.0346;;;;
2022/12/05 11:06:03;;;;;;;5.6;4.1;;;;;;;4.76;92.94922;938.116;;;;
2022/12/05 11:08:28;;;;;;;5.7;4.4;;;;;;;4.63;93.31445;938.12;;;;
2022/12/05 11:10:57;;;;;;;6.4;5.5;;;;;;;4.67;93.81934;938.1242;;;;
2022/12/05 11:13:22;;;;;;;5.5;4.9;;;;;;;4.9;93.64551;938.1528;;;;
2022/12/05 11:15:48;;;;;;;6.5;4.9;;;;;;;5.08;92.83789;938.085;;;;
2022/12/05 11:18:13;;;;;;;5.4;4.2;;;;;;;5.19;92.02734;938.0836;;;;
2022/12/05 11:20:38;;;;;;;5.1;4.2;;;;;;;5.16;90.80371;938.1489;;;;
2022/12/05 11:23:06;;;;;;;4.7;3.8;;;;;;;5.26;90.81348;938.1198;;;;
2022/12/05 11:25:33;;;;;;;4.9;3.6;;;;;;;5.35;89.94141;938.1652;;;;
2022/12/05 11:28:01;;;;;;;4.8;3.6;;;;;;;5.38;89.22656;938.0894;;;;
2022/12/05 11:30:27;;;;;;;5.1;3.5;;;;;;;5.49;89.04395;938.1702;;;;
2022/12/05 11:32:57;;;;;;;3.6;3.2;;;;;;;5.57;88.8125;938.1888;;;;
2022/12/05 11:35:24;;;;;;;4.8;3.3;;;;;;;5.59;88.55859;938.158;;;;
2022/12/05 11:37:49;;;;;;;4.1;3.5;;;;;;;5.49;88.80762;938.0904;;;;
2022/12/05 11:40:14;;;;;;;4.5;4;;;;;;;5.47;88.76953;938.1057;;;;
2022/12/05 11:42:40;;;;;;;5.5;3.8;;;;;;;5.5;89.21582;937.9769;;;;
2022/12/05 11:45:05;;;;;;;5.1;4;;;;;;;5.47;89.42383;938.0488;;;;
2022/12/05 11:47:36;;;;;;;6.4;4.9;;;;;;;5.45;89.60059;938.1208;;;;
2022/12/05 11:50:01;;;;;;;5.8;4.9;;;;;;;5.54;89.54102;938.1753;;;;
2022/12/05 11:52:26;;;;;;;11.4;8.4;;;;;;;5.51;89.26465;938.1644;;;;
2022/12/05 11:54:51;;;;;;;15.5;10.9;;;;;;;5.61;89.06836;938.0812;;;;
2022/12/05 11:57:17;;;;;;;9.4;7.2;;;;;;;5.55;89.48633;938.0645;;;;
2022/12/05 11:59:43;;;;;;;6.5;4.6;;;;;;;5.63;88.98438;938.0084;;;;
2022/12/05 12:02:07;;;;;;;5.6;4.7;;;;;;;5.7;88.84082;938.0712;;;;
2022/12/05 12:04:32;;;;;;;9.6;6.7;;;;;;;5.62;88.19238;938.0912;;;;
2022/12/05 12:06:57;;;;;;;4.7;3.8;;;;;;;5.73;87.90918;938.1021;;;;
2022/12/05 12:09:27;;;;;;;5.2;3.3;;;;;;;5.54;88.04004;938.0333;;;;
2022/12/05 12:11:52;;;;;;;4.4;3.1;;;;;;;5.56;88.16992;938.1011;;;;
2022/12/05 12:14:17;;;;;;;9.2;7;;;;;;;5.53;88.3877;938.0781;;;;
2022/12/05 12:16:44;;;;;;;10.5;6.1;;;;;;;5.57;87.94434;938.0769;;;;
2022/12/05 12:19:09;;;;;;;7.2;5.9;;;;;;;5.52;88.0459;937.9956;;;;
2022/12/05 12:21:37;;;;;;;9.3;6.8;;;;;;;5.63;88.1377;937.9256;;;;
2022/12/05 12:24:03;;;;;;;4.9;3.9;;;;;;;5.59;87.9834;937.8839;;;;
2022/12/05 12:26:28;;;;;;;6.2;4.1;;;;;;;5.6;87.82715;937.889;;;;
2022/12/05 12:28:53;;;;;;;9.4;7;;;;;;;5.53;88.8623;938.0647;;;;
2022/12/05 12:31:20;;;;;;;15.8;9.4;;;;;;;5.57;88.93945;937.964;;;;
2022/12/05 12:33:47;;;;;;;11.7;7.5;;;;;;;5.54;89.25879;937.99;;;;
2022/12/05 12:36:12;;;;;;;8.6;6;;;;;;;5.55;88.98828;937.9355;;;;
2022/12/05 12:38:37;;;;;;;16.5;11.3;;;;;;;5.57;89.47852;937.9316;;;;
2022/12/05 12:41:02;;;;;;;29.6;18.2;;;;;;;5.46;89.71777;937.9428;;;;
2022/12/05 12:43:27;;;;;;;9.7;7;;;;;;;5.29;90.08594;937.868;;;;
2022/12/05 12:45:53;;;;;;;7.7;5.7;;;;;;;5.28;90.18555;937.8859;;;;
2022/12/05 12:48:18;;;;;;;6.3;4.7;;;;;;;5.39;89.83594;937.8448;;;;
2022/12/05 12:50:43;;;;;;;18.6;10.6;;;;;;;5.49;90.00586;937.8599;;;;
2022/12/05 12:53:11;;;;;;;34.4;14.9;;;;;;;5.54;89.23633;937.8683;;;;
2022/12/05 12:55:36;;;;;;;17.5;9;;;;;;;5.46;89.89844;937.9175;;;;
2022/12/05 12:58:02;;;;;;;99.7;48.2;;;;;;;5.48;90.44336;937.9346;;;;
2022/12/05 13:00:27;;;;;;;5;4.1;;;;;;;5.07;91.24609;937.886;;;;
2022/12/05 13:02:57;;;;;;;5.5;4.5;;;;;;;4.84;92.16699;937.812;;;;
2022/12/05 13:05:22;;;;;;;6.9;5.6;;;;;;;4.96;92.46094;937.8279;;;;
2022/12/05 13:07:47;;;;;;;5.3;4.8;;;;;;;5.07;92.39648;937.7701;;;;
2022/12/05 13:10:12;;;;;;;4.3;3.9;;;;;;;4.88;92.21973;937.8817;;;;
2022/12/05 13:12:37;;;;;;;5;3.7;;;;;;;4.53;93.03516;937.8557;;;;
2022/12/05 13:15:10;;;;;;;4.3;3.8;;;;;;;4.26;95.05566;937.8387;;;;
2022/12/05 13:17:42;;;;;;;4.3;3.9;;;;;;;4.06;96.34961;937.7951;;;;
2022/12/05 13:20:15;;;;;;;4.6;3.9;;;;;;;4.12;96.08301;937.8293;;;;
2022/12/05 13:22:42;;;;;;;3.5;3.2;;;;;;;4.08;95.88184;937.8562;;;;
2022/12/05 13:25:06;;;;;;;3.8;3.3;;;;;;;4.3;95.39063;937.8651;;;;
2022/12/05 13:27:32;;;;;;;4.2;3.8;;;;;;;4.56;94.68359;937.9763;;;;
2022/12/05 13:30:02;;;;;;;4;3.3;;;;;;;4.65;93.4082;937.9336;;;;
2022/12/05 13:32:27;;;;;;;4.9;3.5;;;;;;;4.71;93.11816;937.8897;;;;
2022/12/05 13:34:52;;;;;;;6;3.8;;;;;;;4.57;93.85352;938.1042;;;;
2022/12/05 13:42:15;;;;;;;6.2;3.9;;;;;;;4.23;94.79102;938.2342;;;;
2022/12/05 13:44:34;;;;;;;5.5;3.7;;;;;;;4.11;95.77734;938.3331;;;;
2022/12/05 13:46:59;;;;;;;5.3;3.8;;;;;;;4.11;95.32715;938.0394;;;;
2022/12/05 13:49:24;;;;;;;4.9;4;;;;;;;4.01;95.3252;938.265;;;;
2022/12/05 13:51:49;;;;;;;6;3.8;;;;;;;3.92;96.09473;938.4344;;;;
2022/12/05 13:54:19;;;;;;;5.8;3.8;;;;;;;3.97;96.6123;938.5063;;;;
2022/12/05 13:56:46;;;;;;;5.8;4.3;;;;;;;3.96;96.59766;938.449;;;;
2022/12/05 13:59:11;;;;;;;4.7;4.1;;;;;;;3.76;97.41797;938.4964;;;;
2022/12/05 14:01:42;;;;;;;4.7;3.5;;;;;;;3.89;97.48242;938.5446;;;;
2022/12/05 14:04:06;;;;;;;6.8;4.2;;;;;;;3.98;97.35645;938.5303;;;;
2022/12/05 14:06:36;;;;;;;5.4;3.6;;;;;;;4.17;96.4873;938.3461;;;;
2022/12/05 14:09:08;;;;;;;3.9;3.5;;;;;;;4.21;95.87598;938.4572;;;;
2022/12/05 14:11:37;;;;;;;7.5;4;;;;;;;4.32;95.7334;938.439;;;;
2022/12/05 14:14:02;;;;;;;3.6;3;;;;;;;4.44;95.20898;938.3381;;;;
2022/12/05 14:16:33;;;;;;;3.7;3.3;;;;;;;4.58;94.69824;938.3403;;;;
2022/12/05 14:18:56;;;;;;;2.4;2.2;;;;;;;4.43;91.77539;938.3467;;;;
2022/12/05 14:21:26;;;;;;;1.7;1.6;;;;;;;4.46;91.36426;938.283;;;;
2022/12/05 14:23:52;;;;;;;4.8;2.6;;;;;;;4.52;91.97266;938.2833;;;;
2022/12/05 14:26:17;;;;;;;11.8;8.5;;;;;;;4.42;92.9082;938.3219;;;;
2022/12/05 14:28:47;;;;;;;12.4;8.4;;;;;;;4.38;93.7334;938.3337;;;;
2022/12/05 14:31:20;;;;;;;14.6;9.5;;;;;;;4.36;94.77637;938.3158;;;;
2022/12/05 14:33:46;;;;;;;17.1;11.6;;;;;;;4.45;94.5127;938.2903;;;;
2022/12/05 14:36:17;;;;;;;19.1;11.8;;;;;;;4.47;94.82227;938.2548;;;;
2022/12/05 14:38:42;;;;;;;21.8;13.5;;;;;;;4.61;94.51465;938.2059;;;;
2022/12/05 14:41:11;;;;;;;18.4;11.8;;;;;;;4.7;94.15234;938.2317;;;;
2022/12/05 14:43:39;;;;;;;18.1;11.7;;;;;;;4.73;94.06836;938.1616;;;;
2022/12/05 14:46:05;;;;;;;10.3;7.6;;;;;;;4.78;93.49414;938.0519;;;;
2022/12/05 14:48:32;;;;;;;10.9;7.2;;;;;;;4.87;92.89648;938.1616;;;;
2022/12/05 14:50:57;;;;;;;7.5;6.2;;;;;;;4.87;92.07324;938.22;;;;
2022/12/05 14:53:22;;;;;;;7.5;5.6;;;;;;;4.88;92.32129;938.2501;;;;
2022/12/05 14:55:52;;;;;;;18.6;12.7;;;;;;;4.85;92.39453;938.2114;;;;
2022/12/05 14:58:17;;;;;;;12.5;9.3;;;;;;;4.87;92.24219;938.3462;;;;
2022/12/05 15:00:42;;;;;;;10.4;8.6;;;;;;;4.73;92.79688;938.3345;;;;
2022/12/05 15:03:07;;;;;;;12.1;8.3;;;;;;;4.83;92.875;938.2234;;;;
2022/12/05 15:05:35;;;;;;;9.4;6.5;;;;;;;4.85;92.87891;938.3416;;;;
2022/12/05 15:08:00;;;;;;;12.6;9.1;;;;;;;4.75;93.5332;938.3895;;;;
2022/12/05 15:10:29;;;;;;;11;7;;;;;;;4.55;94.79395;938.4039;;;;
2022/12/05 15:12:54;;;;;;;11;8.4;;;;;;;4.38;95.48926;938.1689;;;;
2022/12/05 15:15:20;;;;;;;12.2;8.1;;;;;;;4.35;95.85449;938.377;;;;
2022/12/05 15:17:49;;;;;;;10.5;7.9;;;;;;;4.26;97.08301;938.4023;;;;
2022/12/05 15:20:14;;;;;;;8.6;5.8;;;;;;;4.42;96.57813;938.3196;;;;
2022/12/05 15:22:44;;;;;;;9.6;6.3;;;;;;;4.5;96.22461;938.4428;;;;
2022/12/05 15:25:16;;;;;;;8.2;7.4;;;;;;;4.52;95.96973;938.4402;;;;
2022/12/05 15:27:43;;;;;;;4.4;3.4;;;;;;;4.5;95.21191;938.5027;;;;
2022/12/05 15:30:14;;;;;;;5.2;4;;;;;;;4.56;94.5166;938.5653;;;;
2022/12/05 15:32:39;;;;;;;9;7.9;;;;;;;4.55;94.22168;938.5453;;;;
2022/12/05 15:35:12;;;;;;;10.3;9.3;;;;;;;4.61;93.91602;938.5472;;;;
2022/12/05 15:37:35;;;;;;;10;8.3;;;;;;;4.63;93.58203;938.5873;;;;
2022/12/05 15:40:00;;;;;;;9.4;8.2;;;;;;;4.69;93.28516;938.5872;;;;
2022/12/05 15:42:25;;;;;;;9.2;7.2;;;;;;;4.72;93.42578;938.6008;;;;
2022/12/05 15:44:50;;;;;;;9.2;6.9;;;;;;;4.78;92.77148;938.7325;;;;
2022/12/05 15:47:16;;;;;;;5.8;4.3;;;;;;;4.7;92.16992;938.6984;;;;
2022/12/05 15:49:43;;;;;;;5.8;4.7;;;;;;;4.76;92.65625;938.7605;;;;
2022/12/05 15:52:08;;;;;;;6.3;4.6;;;;;;;4.72;92.8623;938.7695;;;;
2022/12/05 15:54:33;;;;;;;11.8;7.4;;;;;;;4.67;92.62402;938.7622;;;;
2022/12/05 15:56:58;;;;;;;12;8.5;;;;;;;4.73;92.61523;938.6672;;;;